TAF and METAR

Decoding for American and Canadian METARs and TAFs is not fully implemented.

Could not understand the following METAR

PAGM 230318Z AUTO 18023KT 1 3/4SM -SN BR OVC008 01/M01 A2954 RMK AO2 PK WND 18027/0317 CIG 007V011 P0000 FZRANO
No TAF available for Gambell Airport
Gambell Airport in United States of America at 8m

Latest 5 airports